sensor_id;sensor_type;location;lat;lon;timestamp;P1;durP1;ratioP1;P2;durP2;ratioP2
39612;SDS011;25303;48.896;13.342;2023-10-31T00:01:04;2.50;;;1.60;;
39612;SDS011;25303;48.896;13.342;2023-10-31T00:03:48;3.20;;;2.00;;
39612;SDS011;25303;48.896;13.342;2023-10-31T00:06:31;4.75;;;1.80;;
39612;SDS011;25303;48.896;13.342;2023-10-31T00:09:14;4.07;;;2.30;;
39612;SDS011;25303;48.896;13.342;2023-10-31T00:11:57;2.70;;;2.03;;
39612;SDS011;25303;48.896;13.342;2023-10-31T00:14:40;2.28;;;1.85;;
39612;SDS011;25303;48.896;13.342;2023-10-31T00:17:23;2.60;;;1.98;;
39612;SDS011;25303;48.896;13.342;2023-10-31T00:20:08;3.10;;;2.10;;
39612;SDS011;25303;48.896;13.342;2023-10-31T00:22:51;3.80;;;2.33;;
39612;SDS011;25303;48.896;13.342;2023-10-31T00:25:34;3.42;;;2.33;;
39612;SDS011;25303;48.896;13.342;2023-10-31T00:28:17;5.65;;;2.58;;
39612;SDS011;25303;48.896;13.342;2023-10-31T00:31:00;3.95;;;2.47;;
39612;SDS011;25303;48.896;13.342;2023-10-31T00:33:45;6.03;;;2.78;;
39612;SDS011;25303;48.896;13.342;2023-10-31T00:36:29;5.53;;;2.67;;
39612;SDS011;25303;48.896;13.342;2023-10-31T00:39:12;4.65;;;3.13;;
39612;SDS011;25303;48.896;13.342;2023-10-31T00:41:55;2.90;;;2.38;;
39612;SDS011;25303;48.896;13.342;2023-10-31T00:44:38;4.57;;;2.85;;
39612;SDS011;25303;48.896;13.342;2023-10-31T00:47:21;3.30;;;2.38;;
39612;SDS011;25303;48.896;13.342;2023-10-31T00:50:04;6.15;;;2.63;;
39612;SDS011;25303;48.896;13.342;2023-10-31T00:52:50;4.22;;;2.50;;
39612;SDS011;25303;48.896;13.342;2023-10-31T00:55:33;2.97;;;2.20;;
39612;SDS011;25303;48.896;13.342;2023-10-31T00:58:16;3.45;;;2.42;;
39612;SDS011;25303;48.896;13.342;2023-10-31T01:00:59;3.58;;;2.72;;
39612;SDS011;25303;48.896;13.342;2023-10-31T01:03:42;4.15;;;2.90;;
39612;SDS011;25303;48.896;13.342;2023-10-31T01:06:25;3.03;;;2.15;;
39612;SDS011;25303;48.896;13.342;2023-10-31T01:09:10;4.38;;;2.17;;
39612;SDS011;25303;48.896;13.342;2023-10-31T01:11:54;2.40;;;1.98;;
39612;SDS011;25303;48.896;13.342;2023-10-31T01:14:37;2.20;;;1.90;;
39612;SDS011;25303;48.896;13.342;2023-10-31T01:17:20;3.03;;;1.88;;
39612;SDS011;25303;48.896;13.342;2023-10-31T01:20:03;1.83;;;1.33;;
39612;SDS011;25303;48.896;13.342;2023-10-31T01:22:47;3.10;;;1.50;;
39612;SDS011;25303;48.896;13.342;2023-10-31T01:25:32;1.40;;;1.20;;
39612;SDS011;25303;48.896;13.342;2023-10-31T01:28:15;1.92;;;1.15;;
39612;SDS011;25303;48.896;13.342;2023-10-31T01:30:59;1.15;;;0.80;;
39612;SDS011;25303;48.896;13.342;2023-10-31T01:33:42;1.23;;;0.93;;
39612;SDS011;25303;48.896;13.342;2023-10-31T01:36:25;2.85;;;0.80;;
39612;SDS011;25303;48.896;13.342;2023-10-31T01:39:08;0.88;;;0.52;;
39612;SDS011;25303;48.896;13.342;2023-10-31T01:41:53;0.55;;;0.50;;
39612;SDS011;25303;48.896;13.342;2023-10-31T01:44:36;1.63;;;0.60;;
39612;SDS011;25303;48.896;13.342;2023-10-31T01:47:19;0.50;;;0.40;;
39612;SDS011;25303;48.896;13.342;2023-10-31T01:50:02;0.98;;;0.60;;
39612;SDS011;25303;48.896;13.342;2023-10-31T01:52:49;0.47;;;0.40;;
39612;SDS011;25303;48.896;13.342;2023-10-31T01:55:32;0.30;;;0.30;;
39612;SDS011;25303;48.896;13.342;2023-10-31T01:58:17;0.73;;;0.32;;
39612;SDS011;25303;48.896;13.342;2023-10-31T02:01:03;1.15;;;0.40;;
39612;SDS011;25303;48.896;13.342;2023-10-31T02:03:47;0.90;;;0.20;;
39612;SDS011;25303;48.896;13.342;2023-10-31T02:06:30;0.57;;;0.50;;
39612;SDS011;25303;48.896;13.342;2023-10-31T02:09:13;0.40;;;0.30;;
39612;SDS011;25303;48.896;13.342;2023-10-31T02:11:56;0.30;;;0.22;;
39612;SDS011;25303;48.896;13.342;2023-10-31T02:14:40;0.20;;;0.20;;
39612;SDS011;25303;48.896;13.342;2023-10-31T02:17:23;0.30;;;0.30;;
39612;SDS011;25303;48.896;13.342;2023-10-31T02:20:07;0.93;;;0.30;;
39612;SDS011;25303;48.896;13.342;2023-10-31T02:22:51;0.45;;;0.45;;
39612;SDS011;25303;48.896;13.342;2023-10-31T02:25:34;0.40;;;0.40;;
39612;SDS011;25303;48.896;13.342;2023-10-31T02:28:17;0.30;;;0.28;;
39612;SDS011;25303;48.896;13.342;2023-10-31T02:31:00;0.50;;;0.40;;
39612;SDS011;25303;48.896;13.342;2023-10-31T02:33:43;0.70;;;0.40;;
39612;SDS011;25303;48.896;13.342;2023-10-31T02:36:26;0.55;;;0.43;;
39612;SDS011;25303;48.896;13.342;2023-10-31T02:39:11;0.68;;;0.50;;
39612;SDS011;25303;48.896;13.342;2023-10-31T02:41:54;0.30;;;0.22;;
39612;SDS011;25303;48.896;13.342;2023-10-31T02:44:37;0.30;;;0.30;;
39612;SDS011;25303;48.896;13.342;2023-10-31T02:47:20;0.50;;;0.40;;
39612;SDS011;25303;48.896;13.342;2023-10-31T02:50:03;0.95;;;0.30;;
39612;SDS011;25303;48.896;13.342;2023-10-31T02:52:46;0.40;;;0.30;;
39612;SDS011;25303;48.896;13.342;2023-10-31T02:55:32;0.30;;;0.30;;
39612;SDS011;25303;48.896;13.342;2023-10-31T02:58:15;1.75;;;0.30;;
39612;SDS011;25303;48.896;13.342;2023-10-31T03:00:58;0.50;;;0.30;;
39612;SDS011;25303;48.896;13.342;2023-10-31T03:03:41;0.47;;;0.30;;
39612;SDS011;25303;48.896;13.342;2023-10-31T03:06:24;0.20;;;0.20;;
39612;SDS011;25303;48.896;13.342;2023-10-31T03:09:07;1.98;;;0.30;;
39612;SDS011;25303;48.896;13.342;2023-10-31T03:11:52;0.47;;;0.25;;
39612;SDS011;25303;48.896;13.342;2023-10-31T03:14:35;0.22;;;0.22;;
39612;SDS011;25303;48.896;13.342;2023-10-31T03:17:19;0.50;;;0.30;;
39612;SDS011;25303;48.896;13.342;2023-10-31T03:20:02;0.40;;;0.40;;
39612;SDS011;25303;48.896;13.342;2023-10-31T03:22:46;0.77;;;0.30;;
39612;SDS011;25303;48.896;13.342;2023-10-31T03:25:29;0.85;;;0.52;;
39612;SDS011;25303;48.896;13.342;2023-10-31T03:28:19;1.05;;;0.47;;
39612;SDS011;25303;48.896;13.342;2023-10-31T03:31:04;0.35;;;0.35;;
39612;SDS011;25303;48.896;13.342;2023-10-31T03:33:47;0.55;;;0.43;;
39612;SDS011;25303;48.896;13.342;2023-10-31T03:36:30;0.55;;;0.45;;
39612;SDS011;25303;48.896;13.342;2023-10-31T03:39:14;0.50;;;0.38;;
39612;SDS011;25303;48.896;13.342;2023-10-31T03:41:59;1.23;;;0.50;;
39612;SDS011;25303;48.896;13.342;2023-10-31T03:44:43;0.45;;;0.32;;
39612;SDS011;25303;48.896;13.342;2023-10-31T03:47:28;0.60;;;0.40;;
39612;SDS011;25303;48.896;13.342;2023-10-31T03:50:11;0.40;;;0.40;;
39612;SDS011;25303;48.896;13.342;2023-10-31T03:52:54;0.38;;;0.30;;
39612;SDS011;25303;48.896;13.342;2023-10-31T03:55:37;0.38;;;0.38;;
39612;SDS011;25303;48.896;13.342;2023-10-31T03:58:20;0.40;;;0.30;;
39612;SDS011;25303;48.896;13.342;2023-10-31T04:03:49;1.33;;;0.65;;
39612;SDS011;25303;48.896;13.342;2023-10-31T04:06:32;0.60;;;0.40;;
39612;SDS011;25303;48.896;13.342;2023-10-31T04:09:15;0.75;;;0.60;;
39612;SDS011;25303;48.896;13.342;2023-10-31T04:11:58;0.82;;;0.43;;
39612;SDS011;25303;48.896;13.342;2023-10-31T04:14:41;0.52;;;0.47;;
39612;SDS011;25303;48.896;13.342;2023-10-31T04:17:25;0.20;;;0.20;;
39612;SDS011;25303;48.896;13.342;2023-10-31T04:20:08;0.20;;;0.20;;
39612;SDS011;25303;48.896;13.342;2023-10-31T04:22:51;0.20;;;0.10;;
39612;SDS011;25303;48.896;13.342;2023-10-31T04:25:34;0.20;;;0.20;;
39612;SDS011;25303;48.896;13.342;2023-10-31T04:28:17;0.20;;;0.20;;
39612;SDS011;25303;48.896;13.342;2023-10-31T04:31:00;0.28;;;0.20;;
39612;SDS011;25303;48.896;13.342;2023-10-31T04:33:45;0.30;;;0.20;;
39612;SDS011;25303;48.896;13.342;2023-10-31T04:36:27;1.13;;;0.25;;
39612;SDS011;25303;48.896;13.342;2023-10-31T04:39:10;0.20;;;0.20;;
39612;SDS011;25303;48.896;13.342;2023-10-31T04:41:53;0.10;;;0.10;;
39612;SDS011;25303;48.896;13.342;2023-10-31T04:44:36;0.15;;;0.15;;
39612;SDS011;25303;48.896;13.342;2023-10-31T04:47:19;0.10;;;0.10;;
39612;SDS011;25303;48.896;13.342;2023-10-31T04:50:04;0.55;;;0.30;;
39612;SDS011;25303;48.896;13.342;2023-10-31T04:52:48;0.57;;;0.40;;
39612;SDS011;25303;48.896;13.342;2023-10-31T04:55:31;0.50;;;0.40;;
39612;SDS011;25303;48.896;13.342;2023-10-31T04:58:14;6.82;;;3.08;;
39612;SDS011;25303;48.896;13.342;2023-10-31T05:00:57;2.45;;;1.42;;
39612;SDS011;25303;48.896;13.342;2023-10-31T05:03:40;2.97;;;1.50;;
39612;SDS011;25303;48.896;13.342;2023-10-31T05:06:24;3.25;;;1.83;;
39612;SDS011;25303;48.896;13.342;2023-10-31T05:09:07;3.15;;;1.60;;
39612;SDS011;25303;48.896;13.342;2023-10-31T05:11:52;27.52;;;5.30;;
39612;SDS011;25303;48.896;13.342;2023-10-31T05:14:35;3.60;;;1.80;;
39612;SDS011;25303;48.896;13.342;2023-10-31T05:17:18;119.03;;;2.65;;
39612;SDS011;25303;48.896;13.342;2023-10-31T05:20:02;1.27;;;0.65;;
39612;SDS011;25303;48.896;13.342;2023-10-31T05:22:47;0.63;;;0.40;;
39612;SDS011;25303;48.896;13.342;2023-10-31T05:25:30;1.10;;;0.60;;
39612;SDS011;25303;48.896;13.342;2023-10-31T05:28:13;1.58;;;0.80;;
39612;SDS011;25303;48.896;13.342;2023-10-31T05:30:56;0.80;;;0.50;;
39612;SDS011;25303;48.896;13.342;2023-10-31T05:33:39;0.55;;;0.40;;
39612;SDS011;25303;48.896;13.342;2023-10-31T05:36:23;0.55;;;0.40;;
39612;SDS011;25303;48.896;13.342;2023-10-31T05:39:08;0.20;;;0.20;;
39612;SDS011;25303;48.896;13.342;2023-10-31T05:41:51;0.20;;;0.20;;
39612;SDS011;25303;48.896;13.342;2023-10-31T05:44:34;0.25;;;0.25;;
39612;SDS011;25303;48.896;13.342;2023-10-31T05:47:17;0.40;;;0.20;;
39612;SDS011;25303;48.896;13.342;2023-10-31T05:50:00;0.40;;;0.20;;
39612;SDS011;25303;48.896;13.342;2023-10-31T05:52:44;0.20;;;0.20;;
39612;SDS011;25303;48.896;13.342;2023-10-31T05:55:28;0.40;;;0.28;;
39612;SDS011;25303;48.896;13.342;2023-10-31T06:00:57;0.40;;;0.30;;
39612;SDS011;25303;48.896;13.342;2023-10-31T06:03:41;0.28;;;0.20;;
39612;SDS011;25303;48.896;13.342;2023-10-31T06:09:08;0.20;;;0.20;;
39612;SDS011;25303;48.896;13.342;2023-10-31T06:11:53;0.40;;;0.30;;
39612;SDS011;25303;48.896;13.342;2023-10-31T06:14:36;0.43;;;0.20;;
39612;SDS011;25303;48.896;13.342;2023-10-31T06:17:19;0.30;;;0.30;;
39612;SDS011;25303;48.896;13.342;2023-10-31T06:20:02;0.40;;;0.17;;
39612;SDS011;25303;48.896;13.342;2023-10-31T06:22:46;0.50;;;0.30;;
39612;SDS011;25303;48.896;13.342;2023-10-31T06:25:29;0.50;;;0.30;;
39612;SDS011;25303;48.896;13.342;2023-10-31T06:28:13;0.63;;;0.28;;
39612;SDS011;25303;48.896;13.342;2023-10-31T06:30:56;1.17;;;0.47;;
39612;SDS011;25303;48.896;13.342;2023-10-31T06:33:40;0.65;;;0.40;;
39612;SDS011;25303;48.896;13.342;2023-10-31T06:36:24;0.98;;;0.50;;
39612;SDS011;25303;48.896;13.342;2023-10-31T06:39:06;0.70;;;0.40;;
39612;SDS011;25303;48.896;13.342;2023-10-31T06:41:53;0.22;;;0.20;;
39612;SDS011;25303;48.896;13.342;2023-10-31T06:44:38;0.80;;;0.30;;
39612;SDS011;25303;48.896;13.342;2023-10-31T06:47:21;0.88;;;0.28;;
39612;SDS011;25303;48.896;13.342;2023-10-31T06:50:05;0.60;;;0.30;;
39612;SDS011;25303;48.896;13.342;2023-10-31T06:52:50;0.30;;;0.20;;
39612;SDS011;25303;48.896;13.342;2023-10-31T06:55:33;0.40;;;0.22;;
39612;SDS011;25303;48.896;13.342;2023-10-31T06:58:15;0.50;;;0.30;;
39612;SDS011;25303;48.896;13.342;2023-10-31T07:01:01;0.70;;;0.20;;
39612;SDS011;25303;48.896;13.342;2023-10-31T07:06:28;0.57;;;0.20;;
39612;SDS011;25303;48.896;13.342;2023-10-31T07:09:11;0.30;;;0.10;;
39612;SDS011;25303;48.896;13.342;2023-10-31T07:11:55;0.73;;;0.27;;
39612;SDS011;25303;48.896;13.342;2023-10-31T07:14:37;0.30;;;0.30;;
39612;SDS011;25303;48.896;13.342;2023-10-31T07:17:23;0.20;;;0.20;;
39612;SDS011;25303;48.896;13.342;2023-10-31T07:20:06;0.50;;;0.30;;
39612;SDS011;25303;48.896;13.342;2023-10-31T07:22:50;0.65;;;0.30;;
39612;SDS011;25303;48.896;13.342;2023-10-31T07:25:34;3.53;;;1.95;;
39612;SDS011;25303;48.896;13.342;2023-10-31T07:28:17;8.88;;;4.28;;
39612;SDS011;25303;48.896;13.342;2023-10-31T07:31:00;7.18;;;3.50;;
39612;SDS011;25303;48.896;13.342;2023-10-31T07:33:45;3.43;;;1.60;;
39612;SDS011;25303;48.896;13.342;2023-10-31T07:36:28;2.55;;;1.30;;
39612;SDS011;25303;48.896;13.342;2023-10-31T07:39:14;1.15;;;0.60;;
39612;SDS011;25303;48.896;13.342;2023-10-31T07:41:56;0.70;;;0.47;;
39612;SDS011;25303;48.896;13.342;2023-10-31T07:44:40;1.02;;;0.80;;
39612;SDS011;25303;48.896;13.342;2023-10-31T07:47:23;0.65;;;0.40;;
39612;SDS011;25303;48.896;13.342;2023-10-31T07:50:09;0.93;;;0.60;;
39612;SDS011;25303;48.896;13.342;2023-10-31T07:52:54;1.13;;;0.60;;
39612;SDS011;25303;48.896;13.342;2023-10-31T07:55:37;0.88;;;0.50;;
39612;SDS011;25303;48.896;13.342;2023-10-31T07:58:19;1.23;;;0.40;;
39612;SDS011;25303;48.896;13.342;2023-10-31T08:01:03;0.52;;;0.40;;
39612;SDS011;25303;48.896;13.342;2023-10-31T08:03:48;0.32;;;0.30;;
39612;SDS011;25303;48.896;13.342;2023-10-31T08:06:32;1.38;;;0.45;;
39612;SDS011;25303;48.896;13.342;2023-10-31T08:09:16;0.60;;;0.32;;
39612;SDS011;25303;48.896;13.342;2023-10-31T08:12:01;1.45;;;0.22;;
39612;SDS011;25303;48.896;13.342;2023-10-31T08:14:45;0.40;;;0.20;;
39612;SDS011;25303;48.896;13.342;2023-10-31T08:17:27;1.33;;;0.50;;
39612;SDS011;25303;48.896;13.342;2023-10-31T08:20:11;1.77;;;0.38;;
39612;SDS011;25303;48.896;13.342;2023-10-31T08:22:56;0.43;;;0.28;;
39612;SDS011;25303;48.896;13.342;2023-10-31T08:28:22;0.52;;;0.30;;
39612;SDS011;25303;48.896;13.342;2023-10-31T08:31:07;0.90;;;0.40;;
39612;SDS011;25303;48.896;13.342;2023-10-31T08:33:51;0.40;;;0.20;;
39612;SDS011;25303;48.896;13.342;2023-10-31T08:36:34;0.47;;;0.22;;
39612;SDS011;25303;48.896;13.342;2023-10-31T08:39:18;1.73;;;0.20;;
39612;SDS011;25303;48.896;13.342;2023-10-31T08:42:02;1.58;;;0.30;;
39612;SDS011;25303;48.896;13.342;2023-10-31T08:44:47;0.30;;;0.22;;
39612;SDS011;25303;48.896;13.342;2023-10-31T08:47:30;0.50;;;0.20;;
39612;SDS011;25303;48.896;13.342;2023-10-31T08:50:13;0.40;;;0.30;;
39612;SDS011;25303;48.896;13.342;2023-10-31T08:52:56;1.73;;;0.40;;
39612;SDS011;25303;48.896;13.342;2023-10-31T08:55:44;0.88;;;0.20;;
39612;SDS011;25303;48.896;13.342;2023-10-31T08:58:27;0.50;;;0.30;;
39612;SDS011;25303;48.896;13.342;2023-10-31T09:01:13;0.43;;;0.30;;
39612;SDS011;25303;48.896;13.342;2023-10-31T09:03:57;0.60;;;0.40;;
39612;SDS011;25303;48.896;13.342;2023-10-31T09:06:40;1.77;;;0.40;;
39612;SDS011;25303;48.896;13.342;2023-10-31T09:09:24;1.50;;;0.47;;
39612;SDS011;25303;48.896;13.342;2023-10-31T09:12:08;0.88;;;0.30;;
39612;SDS011;25303;48.896;13.342;2023-10-31T09:14:52;0.60;;;0.30;;
39612;SDS011;25303;48.896;13.342;2023-10-31T09:17:35;1.25;;;0.20;;
39612;SDS011;25303;48.896;13.342;2023-10-31T09:20:19;0.57;;;0.30;;
39612;SDS011;25303;48.896;13.342;2023-10-31T09:23:02;0.85;;;0.40;;
39612;SDS011;25303;48.896;13.342;2023-10-31T09:25:46;0.75;;;0.30;;
39612;SDS011;25303;48.896;13.342;2023-10-31T09:28:30;1.55;;;0.40;;
39612;SDS011;25303;48.896;13.342;2023-10-31T09:31:14;0.55;;;0.20;;
39612;SDS011;25303;48.896;13.342;2023-10-31T09:33:57;0.63;;;0.20;;
39612;SDS011;25303;48.896;13.342;2023-10-31T09:36:42;0.20;;;0.20;;
39612;SDS011;25303;48.896;13.342;2023-10-31T09:39:27;0.45;;;0.20;;
39612;SDS011;25303;48.896;13.342;2023-10-31T09:42:10;0.40;;;0.20;;
39612;SDS011;25303;48.896;13.342;2023-10-31T09:44:54;2.00;;;0.28;;
39612;SDS011;25303;48.896;13.342;2023-10-31T09:50:21;1.05;;;0.30;;
39612;SDS011;25303;48.896;13.342;2023-10-31T09:53:04;0.60;;;0.40;;
39612;SDS011;25303;48.896;13.342;2023-10-31T09:55:49;0.70;;;0.40;;
39612;SDS011;25303;48.896;13.342;2023-10-31T09:58:35;0.77;;;0.30;;
39612;SDS011;25303;48.896;13.342;2023-10-31T10:01:19;1.65;;;0.40;;
39612;SDS011;25303;48.896;13.342;2023-10-31T10:06:51;0.55;;;0.30;;
39612;SDS011;25303;48.896;13.342;2023-10-31T10:09:36;1.13;;;0.43;;
39612;SDS011;25303;48.896;13.342;2023-10-31T10:12:19;1.20;;;0.40;;
39612;SDS011;25303;48.896;13.342;2023-10-31T10:15:02;0.47;;;0.30;;
39612;SDS011;25303;48.896;13.342;2023-10-31T10:17:49;0.30;;;0.30;;
39612;SDS011;25303;48.896;13.342;2023-10-31T10:20:33;0.63;;;0.30;;
39612;SDS011;25303;48.896;13.342;2023-10-31T10:23:16;0.25;;;0.20;;
39612;SDS011;25303;48.896;13.342;2023-10-31T10:25:59;1.95;;;0.20;;
39612;SDS011;25303;48.896;13.342;2023-10-31T10:28:46;0.55;;;0.30;;
39612;SDS011;25303;48.896;13.342;2023-10-31T10:31:30;1.13;;;0.20;;
39612;SDS011;25303;48.896;13.342;2023-10-31T10:34:15;1.52;;;0.50;;
39612;SDS011;25303;48.896;13.342;2023-10-31T10:36:58;0.98;;;0.38;;
39612;SDS011;25303;48.896;13.342;2023-10-31T10:39:42;1.13;;;0.45;;
39612;SDS011;25303;48.896;13.342;2023-10-31T10:42:31;3.78;;;0.73;;
39612;SDS011;25303;48.896;13.342;2023-10-31T10:45:16;1.05;;;0.55;;
39612;SDS011;25303;48.896;13.342;2023-10-31T10:47:59;1.63;;;0.40;;
39612;SDS011;25303;48.896;13.342;2023-10-31T10:50:50;1.55;;;0.60;;
39612;SDS011;25303;48.896;13.342;2023-10-31T10:53:40;0.77;;;0.50;;
39612;SDS011;25303;48.896;13.342;2023-10-31T10:56:33;0.68;;;0.40;;
39612;SDS011;25303;48.896;13.342;2023-10-31T10:59:21;0.98;;;0.50;;
39612;SDS011;25303;48.896;13.342;2023-10-31T11:02:13;0.90;;;0.38;;
39612;SDS011;25303;48.896;13.342;2023-10-31T11:04:56;0.70;;;0.40;;
39612;SDS011;25303;48.896;13.342;2023-10-31T11:07:42;0.40;;;0.40;;
39612;SDS011;25303;48.896;13.342;2023-10-31T11:10:25;0.77;;;0.50;;
39612;SDS011;25303;48.896;13.342;2023-10-31T11:13:10;0.63;;;0.60;;
39612;SDS011;25303;48.896;13.342;2023-10-31T11:15:55;1.60;;;0.40;;
39612;SDS011;25303;48.896;13.342;2023-10-31T11:18:42;0.50;;;0.50;;
39612;SDS011;25303;48.896;13.342;2023-10-31T11:21:27;1.58;;;0.60;;
39612;SDS011;25303;48.896;13.342;2023-10-31T11:24:12;5.55;;;3.80;;
39612;SDS011;25303;48.896;13.342;2023-10-31T11:26:58;1.95;;;1.05;;
39612;SDS011;25303;48.896;13.342;2023-10-31T11:29:41;0.98;;;0.60;;
39612;SDS011;25303;48.896;13.342;2023-10-31T11:32:24;1.17;;;0.40;;
39612;SDS011;25303;48.896;13.342;2023-10-31T11:35:09;0.30;;;0.30;;
39612;SDS011;25303;48.896;13.342;2023-10-31T11:38:00;1.75;;;0.30;;
39612;SDS011;25303;48.896;13.342;2023-10-31T11:40:59;1.20;;;0.50;;
39612;SDS011;25303;48.896;13.342;2023-10-31T11:43:50;0.90;;;0.40;;
39612;SDS011;25303;48.896;13.342;2023-10-31T11:46:34;0.77;;;0.30;;
39612;SDS011;25303;48.896;13.342;2023-10-31T11:49:17;1.63;;;0.47;;
39612;SDS011;25303;48.896;13.342;2023-10-31T11:52:01;1.77;;;0.30;;
39612;SDS011;25303;48.896;13.342;2023-10-31T11:54:45;1.17;;;0.50;;
39612;SDS011;25303;48.896;13.342;2023-10-31T11:57:30;1.67;;;0.40;;
39612;SDS011;25303;48.896;13.342;2023-10-31T12:00:19;0.57;;;0.30;;
39612;SDS011;25303;48.896;13.342;2023-10-31T12:03:05;0.40;;;0.40;;
39612;SDS011;25303;48.896;13.342;2023-10-31T12:05:51;0.85;;;0.40;;
39612;SDS011;25303;48.896;13.342;2023-10-31T12:08:37;0.75;;;0.30;;
39612;SDS011;25303;48.896;13.342;2023-10-31T12:11:21;1.23;;;0.30;;
39612;SDS011;25303;48.896;13.342;2023-10-31T12:14:07;0.45;;;0.43;;
39612;SDS011;25303;48.896;13.342;2023-10-31T12:16:51;0.65;;;0.35;;
39612;SDS011;25303;48.896;13.342;2023-10-31T12:19:34;0.73;;;0.20;;
39612;SDS011;25303;48.896;13.342;2023-10-31T12:22:17;1.08;;;0.45;;
39612;SDS011;25303;48.896;13.342;2023-10-31T12:25:02;0.73;;;0.40;;
39612;SDS011;25303;48.896;13.342;2023-10-31T12:27:45;0.75;;;0.43;;
39612;SDS011;25303;48.896;13.342;2023-10-31T12:30:31;0.65;;;0.50;;
39612;SDS011;25303;48.896;13.342;2023-10-31T12:35:58;1.25;;;0.60;;
39612;SDS011;25303;48.896;13.342;2023-10-31T12:38:42;1.67;;;0.70;;
39612;SDS011;25303;48.896;13.342;2023-10-31T12:41:26;3.45;;;0.77;;
39612;SDS011;25303;48.896;13.342;2023-10-31T12:44:10;3.60;;;0.80;;
39612;SDS011;25303;48.896;13.342;2023-10-31T12:46:57;1.10;;;0.65;;
39612;SDS011;25303;48.896;13.342;2023-10-31T12:49:40;1.90;;;0.85;;
39612;SDS011;25303;48.896;13.342;2023-10-31T12:52:23;1.60;;;1.00;;
39612;SDS011;25303;48.896;13.342;2023-10-31T12:55:12;1.92;;;1.02;;
39612;SDS011;25303;48.896;13.342;2023-10-31T12:57:57;2.05;;;1.15;;
39612;SDS011;25303;48.896;13.342;2023-10-31T13:00:41;1.58;;;0.75;;
39612;SDS011;25303;48.896;13.342;2023-10-31T13:03:25;1.10;;;0.55;;
39612;SDS011;25303;48.896;13.342;2023-10-31T13:06:13;1.10;;;0.60;;
39612;SDS011;25303;48.896;13.342;2023-10-31T13:08:57;1.70;;;0.80;;
39612;SDS011;25303;48.896;13.342;2023-10-31T13:11:41;1.97;;;0.70;;
39612;SDS011;25303;48.896;13.342;2023-10-31T13:14:24;1.13;;;0.60;;
39612;SDS011;25303;48.896;13.342;2023-10-31T13:17:07;2.22;;;0.50;;
39612;SDS011;25303;48.896;13.342;2023-10-31T13:19:51;1.63;;;0.75;;
39612;SDS011;25303;48.896;13.342;2023-10-31T13:22:34;0.82;;;0.63;;
39612;SDS011;25303;48.896;13.342;2023-10-31T13:25:17;1.00;;;0.60;;
39612;SDS011;25303;48.896;13.342;2023-10-31T13:28:00;3.15;;;1.00;;
39612;SDS011;25303;48.896;13.342;2023-10-31T13:30:46;0.88;;;0.60;;
39612;SDS011;25303;48.896;13.342;2023-10-31T13:33:30;1.63;;;0.57;;
39612;SDS011;25303;48.896;13.342;2023-10-31T13:36:15;1.48;;;0.40;;
39612;SDS011;25303;48.896;13.342;2023-10-31T13:38:59;0.63;;;0.40;;
39612;SDS011;25303;48.896;13.342;2023-10-31T13:41:42;1.38;;;0.60;;
39612;SDS011;25303;48.896;13.342;2023-10-31T13:44:25;0.38;;;0.30;;
39612;SDS011;25303;48.896;13.342;2023-10-31T13:47:08;0.40;;;0.38;;
39612;SDS011;25303;48.896;13.342;2023-10-31T13:49:52;4.35;;;0.45;;
39612;SDS011;25303;48.896;13.342;2023-10-31T13:52:36;1.67;;;0.50;;
39612;SDS011;25303;48.896;13.342;2023-10-31T13:55:20;0.95;;;0.57;;
39612;SDS011;25303;48.896;13.342;2023-10-31T13:58:03;0.52;;;0.40;;
39612;SDS011;25303;48.896;13.342;2023-10-31T14:00:46;0.70;;;0.40;;
39612;SDS011;25303;48.896;13.342;2023-10-31T14:03:29;0.60;;;0.40;;
39612;SDS011;25303;48.896;13.342;2023-10-31T14:06:13;0.40;;;0.30;;
39612;SDS011;25303;48.896;13.342;2023-10-31T14:08:57;0.95;;;0.45;;
39612;SDS011;25303;48.896;13.342;2023-10-31T14:11:40;0.60;;;0.30;;
39612;SDS011;25303;48.896;13.342;2023-10-31T14:14:23;0.30;;;0.20;;
39612;SDS011;25303;48.896;13.342;2023-10-31T14:17:07;0.43;;;0.40;;
39612;SDS011;25303;48.896;13.342;2023-10-31T14:19:50;0.75;;;0.40;;
39612;SDS011;25303;48.896;13.342;2023-10-31T14:22:33;0.80;;;0.40;;
39612;SDS011;25303;48.896;13.342;2023-10-31T14:25:17;0.77;;;0.60;;
39612;SDS011;25303;48.896;13.342;2023-10-31T14:28:00;0.60;;;0.40;;
39612;SDS011;25303;48.896;13.342;2023-10-31T14:30:43;0.82;;;0.40;;
39612;SDS011;25303;48.896;13.342;2023-10-31T14:33:26;0.43;;;0.43;;
39612;SDS011;25303;48.896;13.342;2023-10-31T14:36:12;0.88;;;0.40;;
39612;SDS011;25303;48.896;13.342;2023-10-31T14:38:56;1.40;;;0.50;;
39612;SDS011;25303;48.896;13.342;2023-10-31T14:41:41;0.50;;;0.40;;
39612;SDS011;25303;48.896;13.342;2023-10-31T14:44:24;0.63;;;0.40;;
39612;SDS011;25303;48.896;13.342;2023-10-31T14:47:07;1.00;;;0.60;;
39612;SDS011;25303;48.896;13.342;2023-10-31T14:49:51;0.73;;;0.35;;
39612;SDS011;25303;48.896;13.342;2023-10-31T14:52:34;2.67;;;0.60;;
39612;SDS011;25303;48.896;13.342;2023-10-31T14:55:17;1.75;;;0.43;;
39612;SDS011;25303;48.896;13.342;2023-10-31T14:58:01;1.13;;;0.60;;
39612;SDS011;25303;48.896;13.342;2023-10-31T15:00:45;1.90;;;0.60;;
39612;SDS011;25303;48.896;13.342;2023-10-31T15:03:29;2.13;;;0.80;;
39612;SDS011;25303;48.896;13.342;2023-10-31T15:06:13;1.23;;;0.70;;
39612;SDS011;25303;48.896;13.342;2023-10-31T15:08:57;2.28;;;1.50;;
39612;SDS011;25303;48.896;13.342;2023-10-31T15:11:41;2.30;;;1.13;;
39612;SDS011;25303;48.896;13.342;2023-10-31T15:14:25;3.60;;;1.00;;
39612;SDS011;25303;48.896;13.342;2023-10-31T15:17:08;1.15;;;0.80;;
39612;SDS011;25303;48.896;13.342;2023-10-31T15:19:51;1.08;;;0.55;;
39612;SDS011;25303;48.896;13.342;2023-10-31T15:22:34;1.17;;;0.65;;
39612;SDS011;25303;48.896;13.342;2023-10-31T15:25:17;2.15;;;0.63;;
39612;SDS011;25303;48.896;13.342;2023-10-31T15:28:00;1.88;;;0.52;;
39612;SDS011;25303;48.896;13.342;2023-10-31T15:30:44;1.30;;;0.50;;
39612;SDS011;25303;48.896;13.342;2023-10-31T15:33:27;1.83;;;0.68;;
39612;SDS011;25303;48.896;13.342;2023-10-31T15:36:10;0.82;;;0.50;;
39612;SDS011;25303;48.896;13.342;2023-10-31T15:38:54;1.63;;;0.70;;
39612;SDS011;25303;48.896;13.342;2023-10-31T15:41:36;1.70;;;0.68;;
39612;SDS011;25303;48.896;13.342;2023-10-31T15:44:19;1.48;;;0.45;;
39612;SDS011;25303;48.896;13.342;2023-10-31T15:47:04;2.55;;;0.65;;
39612;SDS011;25303;48.896;13.342;2023-10-31T15:49:48;2.10;;;0.50;;
39612;SDS011;25303;48.896;13.342;2023-10-31T15:52:32;1.40;;;0.60;;
39612;SDS011;25303;48.896;13.342;2023-10-31T15:55:15;1.27;;;0.50;;
39612;SDS011;25303;48.896;13.342;2023-10-31T15:57:58;3.00;;;0.60;;
39612;SDS011;25303;48.896;13.342;2023-10-31T16:00:41;1.45;;;0.60;;
39612;SDS011;25303;48.896;13.342;2023-10-31T16:03:25;1.70;;;1.00;;
39612;SDS011;25303;48.896;13.342;2023-10-31T16:06:09;1.17;;;0.95;;
39612;SDS011;25303;48.896;13.342;2023-10-31T16:08:52;1.25;;;0.90;;
39612;SDS011;25303;48.896;13.342;2023-10-31T16:14:19;1.10;;;0.60;;
39612;SDS011;25303;48.896;13.342;2023-10-31T16:17:04;3.78;;;0.90;;
39612;SDS011;25303;48.896;13.342;2023-10-31T16:19:50;1.92;;;1.00;;
39612;SDS011;25303;48.896;13.342;2023-10-31T16:22:33;1.45;;;0.75;;
39612;SDS011;25303;48.896;13.342;2023-10-31T16:25:16;1.08;;;0.70;;
39612;SDS011;25303;48.896;13.342;2023-10-31T16:27:59;0.88;;;0.55;;
39612;SDS011;25303;48.896;13.342;2023-10-31T16:30:42;3.88;;;0.90;;
39612;SDS011;25303;48.896;13.342;2023-10-31T16:33:26;1.55;;;0.85;;
39612;SDS011;25303;48.896;13.342;2023-10-31T16:36:11;1.35;;;0.70;;